Terminal Aerodrome Forecast
Issued by NWS Pueblo, CO

Home | Current Version | Previous Version | Text Only | Print | Product List | Glossary On
Versions: 1 2 3 4 5 6 7 8 9 10 11 12 13
000
FTUS45 KPUB 242327
TAFALS
TAF
KALS 242327Z 2500/2524 23020G30KT P6SM SCT120
     FM250200 23012KT P6SM SCT120
     FM250500 VRB06KT P6SM FEW120
     FM251800 23015G25KT P6SM SCT120=

USA.gov is the U.S. government's official web portal to all federal, state and local government web resources and services.